createdAt,value
2018-12-11T00:01:33.491Z,4.00
2018-12-11T00:04:04.416Z,4.30
2018-12-11T00:06:32.595Z,3.60
2018-12-11T00:09:02.932Z,4.00
2018-12-11T00:11:33.970Z,5.20
2018-12-11T00:14:03.234Z,4.60
2018-12-11T00:16:31.437Z,4.50
2018-12-11T00:18:59.715Z,4.40
2018-12-11T00:21:28.908Z,4.87
2018-12-11T00:23:57.319Z,5.53
2018-12-11T00:26:25.572Z,5.47
2018-12-11T00:28:54.364Z,5.93
2018-12-11T00:31:22.632Z,5.17
2018-12-11T00:33:51.315Z,3.67
2018-12-11T00:36:19.546Z,4.30
2018-12-11T00:38:48.158Z,4.80
2018-12-11T00:41:16.310Z,5.17
2018-12-11T00:43:45.462Z,4.60
2018-12-11T00:46:13.783Z,4.90
2018-12-11T00:48:41.948Z,3.77
2018-12-11T00:51:10.122Z,5.03
2018-12-11T00:53:38.422Z,4.77
2018-12-11T00:56:08.407Z,4.93
2018-12-11T00:58:37.515Z,4.90
2018-12-11T01:01:06.127Z,4.97
2018-12-11T01:03:34.684Z,5.63
2018-12-11T01:06:04.522Z,4.47
2018-12-11T01:08:33.850Z,4.67
2018-12-11T01:11:06.733Z,4.07
2018-12-11T01:13:35.096Z,4.93
2018-12-11T01:16:07.422Z,4.87
2018-12-11T01:18:36.517Z,5.30
2018-12-11T01:21:04.759Z,3.73
2018-12-11T01:23:32.975Z,5.63
2018-12-11T01:26:04.688Z,5.00
2018-12-11T01:28:39.563Z,4.80
2018-12-11T01:31:07.943Z,4.60
2018-12-11T01:33:36.087Z,5.00
2018-12-11T01:36:07.267Z,4.57
2018-12-11T01:38:35.446Z,4.50
2018-12-11T01:41:03.838Z,5.40
2018-12-11T01:43:32.018Z,6.30
2018-12-11T01:46:00.186Z,4.83
2018-12-11T01:48:28.391Z,4.87
2018-12-11T01:50:56.611Z,4.73
2018-12-11T01:53:24.942Z,4.00
2018-12-11T01:55:53.086Z,5.40
2018-12-11T01:58:21.235Z,5.20
2018-12-11T02:00:50.374Z,5.83
2018-12-11T02:03:19.444Z,6.20
2018-12-11T02:05:47.642Z,4.93
2018-12-11T02:08:15.840Z,5.77
2018-12-11T02:10:44.416Z,4.97
2018-12-11T02:13:12.643Z,5.37
2018-12-11T02:15:40.806Z,5.60
2018-12-11T02:18:08.957Z,6.13
2018-12-11T02:20:37.201Z,6.07
2018-12-11T02:23:05.416Z,5.93
2018-12-11T02:25:33.575Z,5.97
2018-12-11T02:28:05.054Z,6.10
2018-12-11T02:30:33.260Z,6.13
2018-12-11T02:33:04.224Z,6.40
2018-12-11T02:35:32.704Z,5.30
2018-12-11T02:40:34.757Z,3.60
2018-12-11T02:43:08.030Z,7.00
2018-12-11T02:45:36.246Z,5.80
2018-12-11T02:48:04.930Z,5.73
2018-12-11T02:50:33.153Z,5.50
2018-12-11T02:53:06.603Z,5.30
2018-12-11T02:55:34.883Z,5.80
2018-12-11T02:58:06.751Z,3.73
2018-12-11T03:00:34.975Z,6.30
2018-12-11T03:03:04.404Z,5.43
2018-12-11T03:05:32.914Z,4.60
2018-12-11T03:08:03.331Z,5.00
2018-12-11T03:10:31.475Z,5.30
2018-12-11T03:13:00.346Z,4.93
2018-12-11T03:15:28.558Z,5.00
2018-12-11T03:17:57.254Z,4.23
2018-12-11T03:20:25.443Z,6.23
2018-12-11T03:22:55.929Z,5.00
2018-12-11T03:25:24.078Z,5.77
2018-12-11T03:27:52.938Z,4.90
2018-12-11T03:30:21.188Z,3.83
2018-12-11T03:32:49.441Z,5.87
2018-12-11T03:35:17.665Z,4.43
2018-12-11T03:37:46.035Z,4.93
2018-12-11T03:40:14.528Z,5.83
2018-12-11T03:42:42.811Z,3.83
2018-12-11T03:45:11.066Z,3.73
2018-12-11T03:47:39.219Z,5.17
2018-12-11T03:50:08.138Z,3.93
2018-12-11T03:52:36.441Z,4.03
2018-12-11T03:55:06.407Z,4.20
2018-12-11T03:57:34.619Z,4.37
2018-12-11T04:00:08.074Z,5.70
2018-12-11T04:02:36.303Z,5.10
2018-12-11T04:05:07.876Z,4.00
2018-12-11T04:07:36.384Z,5.10
2018-12-11T04:10:07.747Z,5.30
2018-12-11T04:12:35.918Z,5.20
2018-12-11T04:15:06.681Z,4.87
2018-12-11T04:17:34.891Z,5.50
2018-12-11T04:20:06.578Z,5.20
2018-12-11T04:22:34.750Z,4.77
2018-12-11T04:25:07.267Z,5.20
2018-12-11T04:27:35.529Z,6.43
2018-12-11T04:30:07.794Z,5.60
2018-12-11T04:32:35.960Z,6.20
2018-12-11T04:35:05.323Z,5.90
2018-12-11T04:37:33.543Z,6.50
2018-12-11T04:40:02.730Z,5.80
2018-12-11T04:42:31.870Z,6.17
2018-12-11T04:45:00.213Z,3.87
2018-12-11T04:47:28.414Z,5.43
2018-12-11T04:49:56.565Z,5.13
2018-12-11T04:52:24.698Z,4.70
2018-12-11T04:54:52.985Z,5.50
2018-12-11T04:57:21.126Z,5.20
2018-12-11T04:59:49.646Z,5.43
2018-12-11T05:02:17.870Z,5.10
2018-12-11T05:07:20.743Z,5.50
2018-12-11T05:09:49.078Z,6.30
2018-12-11T05:12:17.346Z,6.03
2018-12-11T05:14:45.567Z,5.80
2018-12-11T05:17:13.771Z,6.73
2018-12-11T05:19:42.024Z,6.97
2018-12-11T05:22:10.296Z,7.03
2018-12-11T05:24:38.478Z,7.80
2018-12-11T05:27:06.930Z,7.27
2018-12-11T05:29:35.307Z,7.43
2018-12-11T05:32:04.353Z,6.03
2018-12-11T05:34:32.487Z,6.90
2018-12-11T05:37:04.127Z,6.63
2018-12-11T05:39:32.302Z,7.00
2018-12-11T05:42:00.535Z,7.27
2018-12-11T05:44:29.062Z,7.30
2018-12-11T05:46:57.372Z,7.07
2018-12-11T05:49:25.685Z,7.10
2018-12-11T05:51:53.866Z,6.87
2018-12-11T05:54:22.039Z,6.70
2018-12-11T05:56:50.434Z,6.30
2018-12-11T05:59:19.081Z,6.23
2018-12-11T06:01:47.258Z,5.60
2018-12-11T06:04:15.579Z,5.63
2018-12-11T06:06:43.833Z,5.00
2018-12-11T06:09:12.091Z,5.87
2018-12-11T06:11:40.304Z,6.47
2018-12-11T06:14:08.659Z,6.07
2018-12-11T06:16:37.410Z,7.23
2018-12-11T06:19:05.610Z,6.20
2018-12-11T06:21:34.834Z,6.00
2018-12-11T06:24:04.974Z,8.93
2018-12-11T06:26:33.155Z,5.30
2018-12-11T06:29:07.042Z,6.80
2018-12-11T06:31:35.222Z,6.30
2018-12-11T06:34:04.401Z,4.67
2018-12-11T06:36:33.075Z,6.30
2018-12-11T06:39:04.349Z,5.33
2018-12-11T06:41:32.641Z,6.13
2018-12-11T06:44:05.195Z,5.60
2018-12-11T06:46:33.402Z,7.00
2018-12-11T06:49:04.842Z,6.57
2018-12-11T06:51:33.194Z,6.83
2018-12-11T06:54:02.806Z,6.40
2018-12-11T06:56:31.011Z,5.80
2018-12-11T06:58:59.255Z,6.50
2018-12-11T07:01:27.474Z,5.37
2018-12-11T07:03:55.642Z,5.97
2018-12-11T07:06:23.862Z,7.27
2018-12-11T07:08:52.238Z,8.17
2018-12-11T07:11:20.748Z,6.60
2018-12-11T07:13:49.174Z,7.17
2018-12-11T07:16:17.342Z,5.30
2018-12-11T07:18:45.868Z,7.10
2018-12-11T07:21:14.054Z,6.70
2018-12-11T07:23:42.256Z,6.57
2018-12-11T07:26:10.417Z,5.93
2018-12-11T07:28:39.526Z,6.17
2018-12-11T07:31:07.792Z,5.33
2018-12-11T07:33:36.046Z,6.37
2018-12-11T07:36:05.068Z,6.30
2018-12-11T07:38:34.689Z,6.90
2018-12-11T07:41:03.995Z,7.53
2018-12-11T07:43:32.952Z,6.93
2018-12-11T07:46:01.910Z,6.27
2018-12-11T07:48:30.727Z,7.00
2018-12-11T07:50:59.663Z,7.73
2018-12-11T07:53:27.830Z,6.83
2018-12-11T07:56:00.125Z,6.53
2018-12-11T07:58:26.218Z,6.50
2018-12-11T08:00:54.383Z,7.37
2018-12-11T08:03:22.686Z,5.90
2018-12-11T08:05:50.858Z,7.30
2018-12-11T08:08:19.072Z,5.50
2018-12-11T08:10:47.303Z,6.83
2018-12-11T08:13:15.543Z,5.73
2018-12-11T08:15:43.719Z,5.53
2018-12-11T08:18:11.890Z,6.43
2018-12-11T08:20:41.102Z,5.97
2018-12-11T08:23:09.385Z,5.40
2018-12-11T08:25:37.627Z,6.60
2018-12-11T08:28:09.488Z,6.10
2018-12-11T08:30:37.763Z,6.80
2018-12-11T08:33:07.956Z,6.00
2018-12-11T08:35:36.125Z,6.10
2018-12-11T08:38:04.962Z,7.10
2018-12-11T08:40:33.144Z,6.67
2018-12-11T08:43:02.370Z,7.60
2018-12-11T08:45:30.556Z,7.50
2018-12-11T08:47:58.774Z,7.07
2018-12-11T08:50:27.058Z,6.33
2018-12-11T08:52:55.294Z,5.90
2018-12-11T08:55:23.480Z,5.67
2018-12-11T08:57:51.628Z,7.43
2018-12-11T09:00:20.678Z,7.23
2018-12-11T09:02:48.854Z,7.00
2018-12-11T09:05:17.082Z,7.37
2018-12-11T09:07:45.274Z,6.50
2018-12-11T09:10:13.664Z,7.03
2018-12-11T09:12:41.885Z,5.80
2018-12-11T09:15:10.278Z,6.47
2018-12-11T09:17:39.417Z,4.17
2018-12-11T09:20:07.793Z,5.60
2018-12-11T09:22:36.023Z,7.03
2018-12-11T09:25:04.667Z,5.70
2018-12-11T09:27:33.162Z,5.37
2018-12-11T09:30:03.865Z,4.90
2018-12-11T09:32:32.371Z,4.80
2018-12-11T09:35:00.595Z,5.07
2018-12-11T09:37:28.782Z,4.80
2018-12-11T09:39:57.486Z,5.73
2018-12-11T09:42:28.015Z,4.57
2018-12-11T09:44:55.891Z,4.50
2018-12-11T09:47:23.999Z,4.60
2018-12-11T09:49:52.233Z,4.83
2018-12-11T09:52:21.318Z,4.00
2018-12-11T09:54:49.499Z,4.27
2018-12-11T09:57:17.995Z,4.23
2018-12-11T09:59:46.803Z,4.13
2018-12-11T10:02:14.942Z,4.00
2018-12-11T10:04:43.219Z,3.77
2018-12-11T10:07:11.399Z,3.60
2018-12-11T10:09:39.586Z,3.17
2018-12-11T10:12:08.654Z,3.40
2018-12-11T10:14:36.794Z,3.20
2018-12-11T10:17:07.226Z,3.90
2018-12-11T10:19:35.402Z,4.90
2018-12-11T10:22:05.055Z,6.80
2018-12-11T10:24:33.226Z,3.67
2018-12-11T10:27:02.865Z,4.20
2018-12-11T10:29:31.135Z,5.20
2018-12-11T10:31:59.384Z,6.23
2018-12-11T10:34:27.513Z,4.83
2018-12-11T10:36:55.751Z,7.60
2018-12-11T10:39:23.901Z,6.17
2018-12-11T10:41:52.367Z,6.13
2018-12-11T10:44:20.594Z,4.50
2018-12-11T10:46:48.739Z,3.93
2018-12-11T10:49:16.914Z,4.50
2018-12-11T10:51:45.048Z,4.30
2018-12-11T10:54:13.215Z,4.10
2018-12-11T10:56:41.370Z,5.20
2018-12-11T10:59:10.327Z,5.57
2018-12-11T11:01:40.598Z,5.43
2018-12-11T11:04:09.000Z,4.30
2018-12-11T11:06:37.251Z,5.40
2018-12-11T11:09:07.511Z,4.87
2018-12-11T11:11:36.154Z,5.00
2018-12-11T11:14:06.291Z,5.43
2018-12-11T11:16:34.635Z,4.13
2018-12-11T11:19:07.100Z,4.57
2018-12-11T11:21:36.271Z,4.00
2018-12-11T11:24:04.811Z,2.90
2018-12-11T11:26:33.116Z,2.90
2018-12-11T11:29:03.242Z,2.80
2018-12-11T11:31:31.407Z,2.40
2018-12-11T11:33:59.579Z,2.63
2018-12-11T11:36:27.799Z,3.20
2018-12-11T11:38:56.030Z,3.40
2018-12-11T11:41:24.257Z,2.80
2018-12-11T11:43:52.669Z,2.80
2018-12-11T11:46:20.909Z,2.50
2018-12-11T11:48:49.038Z,2.37
2018-12-11T11:51:17.210Z,2.50
2018-12-11T11:53:45.438Z,2.40
2018-12-11T11:56:13.685Z,1.83
2018-12-11T11:58:42.144Z,2.57
2018-12-11T12:01:10.601Z,2.67
2018-12-11T12:03:38.794Z,3.00
2018-12-11T12:06:07.475Z,3.70
2018-12-11T12:08:35.663Z,3.40
2018-12-11T12:11:05.173Z,3.57
2018-12-11T12:13:33.358Z,3.50
2018-12-11T12:16:05.013Z,3.30
2018-12-11T12:18:33.572Z,3.40
2018-12-11T12:21:06.375Z,3.50
2018-12-11T12:23:35.516Z,2.70
2018-12-11T12:26:04.074Z,3.53
2018-12-11T12:28:32.331Z,3.43
2018-12-11T12:31:04.554Z,4.40
2018-12-11T12:33:32.683Z,3.90
2018-12-11T12:36:05.235Z,3.73
2018-12-11T12:38:33.492Z,4.70
2018-12-11T12:41:07.208Z,4.27
2018-12-11T12:43:35.391Z,4.53
2018-12-11T12:46:05.784Z,4.13
2018-12-11T12:48:34.077Z,3.97
2018-12-11T12:51:05.562Z,3.00
2018-12-11T12:53:33.818Z,3.93
2018-12-11T12:56:05.575Z,3.93
2018-12-11T12:58:33.782Z,5.47
2018-12-11T13:01:03.791Z,4.10
2018-12-11T13:03:32.018Z,3.40
2018-12-11T13:06:00.304Z,4.60
2018-12-11T13:08:28.454Z,5.00
2018-12-11T13:10:56.689Z,4.93
2018-12-11T13:13:25.325Z,8.17
2018-12-11T13:15:53.849Z,4.20
2018-12-11T13:18:21.977Z,4.50
2018-12-11T13:20:51.115Z,4.20
2018-12-11T13:23:19.363Z,5.20
2018-12-11T13:25:47.650Z,5.80
2018-12-11T13:28:15.819Z,6.57
2018-12-11T13:30:43.997Z,5.00
2018-12-11T13:33:12.264Z,4.97
2018-12-11T13:35:40.518Z,4.73
2018-12-11T13:38:08.798Z,4.50
2018-12-11T13:40:37.502Z,4.00
2018-12-11T13:43:07.050Z,5.10
2018-12-11T13:45:35.207Z,4.33
2018-12-11T13:48:07.415Z,4.90
2018-12-11T13:50:35.566Z,4.00
2018-12-11T13:53:04.115Z,5.03
2018-12-11T13:55:32.367Z,4.30
2018-12-11T13:58:00.494Z,5.20
2018-12-11T14:00:28.694Z,4.07
2018-12-11T14:02:57.616Z,4.83
2018-12-11T14:05:25.762Z,4.63
2018-12-11T14:07:53.917Z,3.83
2018-12-11T14:10:22.082Z,4.33
2018-12-11T14:12:50.240Z,6.10
2018-12-11T14:15:18.500Z,4.77
2018-12-11T14:17:46.706Z,5.20
2018-12-11T14:20:14.959Z,4.73
2018-12-11T14:22:43.131Z,5.00
2018-12-11T14:25:11.474Z,5.00
2018-12-11T14:27:39.634Z,5.23
2018-12-11T14:30:11.205Z,5.43
2018-12-11T14:32:39.763Z,5.10
2018-12-11T14:35:08.165Z,5.27
2018-12-11T14:37:36.414Z,5.30
2018-12-11T14:40:06.130Z,5.30
2018-12-11T14:42:34.366Z,4.03
2018-12-11T14:45:06.225Z,5.30
2018-12-11T14:47:34.991Z,4.57
2018-12-11T14:50:07.470Z,5.10
2018-12-11T14:52:35.734Z,5.70
2018-12-11T14:55:05.722Z,5.50
2018-12-11T14:57:33.952Z,5.00
2018-12-11T15:00:03.027Z,5.63
2018-12-11T15:02:31.281Z,4.93
2018-12-11T15:04:59.884Z,5.23
2018-12-11T15:07:28.372Z,5.70
2018-12-11T15:09:56.540Z,5.57
2018-12-11T15:12:24.975Z,5.60
2018-12-11T15:14:53.154Z,7.07
2018-12-11T15:17:21.359Z,5.90
2018-12-11T15:19:49.563Z,7.47
2018-12-11T15:22:17.841Z,6.90
2018-12-11T15:24:45.975Z,6.23
2018-12-11T15:27:14.132Z,5.97
2018-12-11T15:29:42.407Z,6.30
2018-12-11T15:32:11.162Z,5.67
2018-12-11T15:34:39.354Z,5.63
2018-12-11T15:37:07.558Z,4.77
2018-12-11T15:39:36.174Z,6.23
2018-12-11T15:42:04.910Z,5.97
2018-12-11T15:44:33.134Z,6.77
2018-12-11T15:47:02.930Z,6.53
2018-12-11T15:49:31.076Z,6.17
2018-12-11T15:51:59.207Z,5.40
2018-12-11T15:54:27.370Z,6.33
2018-12-11T15:56:56.208Z,5.20
2018-12-11T15:59:24.720Z,5.40
2018-12-11T16:01:53.023Z,6.13
2018-12-11T16:04:21.170Z,7.27
2018-12-11T16:06:49.278Z,5.90
2018-12-11T16:09:19.461Z,8.60
2018-12-11T16:11:48.047Z,7.27
2018-12-11T16:14:16.332Z,7.17
2018-12-11T16:16:44.578Z,7.60
2018-12-11T16:19:13.163Z,6.93
2018-12-11T16:21:41.334Z,6.40
2018-12-11T16:24:09.527Z,7.03
2018-12-11T16:26:37.804Z,7.40
2018-12-11T16:29:06.707Z,7.97
2018-12-11T16:31:34.955Z,7.10
2018-12-11T16:34:05.279Z,8.87
2018-12-11T16:36:33.507Z,8.60
2018-12-11T16:39:05.570Z,8.00
2018-12-11T16:41:33.834Z,10.30
2018-12-11T16:44:05.205Z,8.47
2018-12-11T16:46:33.459Z,8.30
2018-12-11T16:49:05.619Z,10.00
2018-12-11T16:51:33.898Z,10.73
2018-12-11T16:54:04.751Z,10.97
2018-12-11T16:56:32.928Z,10.67
2018-12-11T16:59:04.854Z,10.43
2018-12-11T17:01:32.975Z,11.33
2018-12-11T17:04:05.547Z,9.07
2018-12-11T17:06:33.742Z,9.00
2018-12-11T17:09:03.791Z,9.97
2018-12-11T17:11:31.938Z,11.07
2018-12-11T17:14:00.088Z,10.93
2018-12-11T17:16:28.994Z,9.20
2018-12-11T17:18:57.226Z,11.43
2018-12-11T17:21:25.427Z,11.23
2018-12-11T17:23:53.952Z,10.90
2018-12-11T17:26:22.095Z,9.70
2018-12-11T17:28:51.275Z,12.63
2018-12-11T17:31:19.458Z,12.10
2018-12-11T17:33:47.699Z,11.20
2018-12-11T17:36:17.375Z,11.20
2018-12-11T17:38:45.583Z,11.70
2018-12-11T17:41:13.850Z,11.23
2018-12-11T17:43:41.995Z,10.30
2018-12-11T17:46:10.187Z,10.33
2018-12-11T17:48:41.550Z,8.77
2018-12-11T17:51:08.783Z,10.40
2018-12-11T17:53:37.291Z,10.90
2018-12-11T17:56:06.998Z,9.60
2018-12-11T17:58:35.187Z,9.23
2018-12-11T18:01:08.046Z,9.60
2018-12-11T18:03:36.235Z,8.90
2018-12-11T18:06:06.646Z,10.33
2018-12-11T18:08:34.919Z,9.93
2018-12-11T18:11:05.001Z,10.40
2018-12-11T18:13:33.174Z,9.13
2018-12-11T18:16:05.618Z,8.93
2018-12-11T18:18:33.853Z,6.87
2018-12-11T18:21:05.576Z,8.90
2018-12-11T18:23:34.202Z,8.90
2018-12-11T18:26:05.070Z,9.53
2018-12-11T18:28:33.302Z,8.17
2018-12-11T18:31:04.867Z,8.77
2018-12-11T18:33:33.059Z,8.40
2018-12-11T18:36:02.962Z,9.17
2018-12-11T18:38:31.170Z,8.80
2018-12-11T18:40:59.337Z,10.67
2018-12-11T18:43:27.503Z,9.43
2018-12-11T18:45:55.734Z,9.07
2018-12-11T18:48:23.920Z,9.20
2018-12-11T18:50:53.062Z,8.57
2018-12-11T18:53:21.355Z,9.80
2018-12-11T18:55:49.542Z,9.70
2018-12-11T18:58:17.769Z,8.40
2018-12-11T19:00:46.227Z,10.20
2018-12-11T19:03:15.042Z,11.67
2018-12-11T19:05:43.308Z,10.40
2018-12-11T19:08:11.566Z,11.00
2018-12-11T19:10:40.642Z,11.37
2018-12-11T19:13:08.795Z,11.90
2018-12-11T19:15:37.107Z,12.03
2018-12-11T19:18:05.395Z,11.83
2018-12-11T19:20:33.638Z,12.83
2018-12-11T19:23:10.772Z,10.57
2018-12-11T19:25:39.014Z,11.97
2018-12-11T19:28:07.240Z,11.50
2018-12-11T19:30:35.398Z,13.20
2018-12-11T19:33:04.931Z,11.47
2018-12-11T19:35:33.276Z,13.17
2018-12-11T19:38:02.456Z,11.90
2018-12-11T19:40:30.741Z,12.17
2018-12-11T19:42:58.920Z,12.00
2018-12-11T19:45:27.276Z,12.10
2018-12-11T19:47:56.207Z,12.57
2018-12-11T19:50:24.451Z,13.77
2018-12-11T19:52:52.605Z,12.87
2018-12-11T19:55:20.808Z,12.20
2018-12-11T19:57:48.996Z,12.77
2018-12-11T20:00:17.884Z,13.40
2018-12-11T20:02:46.039Z,12.60
2018-12-11T20:05:14.643Z,13.10
2018-12-11T20:07:44.403Z,13.27
2018-12-11T20:10:16.432Z,13.77
2018-12-11T20:12:44.773Z,13.23
2018-12-11T20:15:13.109Z,13.00
2018-12-11T20:17:41.279Z,13.80
2018-12-11T20:20:21.596Z,13.70
2018-12-11T20:22:49.899Z,12.27
2018-12-11T20:25:19.062Z,13.73
2018-12-11T20:27:47.361Z,13.23
2018-12-11T20:30:15.624Z,12.97
2018-12-11T20:32:44.795Z,12.03
2018-12-11T20:35:13.043Z,12.40
2018-12-11T20:37:42.288Z,11.47
2018-12-11T20:40:10.595Z,13.30
2018-12-11T20:42:39.795Z,13.67
2018-12-11T20:45:08.108Z,14.20
2018-12-11T20:47:37.039Z,12.77
2018-12-11T20:50:06.320Z,13.17
2018-12-11T20:52:34.507Z,12.70
2018-12-11T20:55:07.031Z,12.60
2018-12-11T20:57:36.264Z,13.13
2018-12-11T21:00:06.388Z,12.20
2018-12-11T21:02:34.869Z,12.40
2018-12-11T21:05:08.815Z,13.90
2018-12-11T21:07:38.168Z,11.37
2018-12-11T21:10:09.131Z,13.33
2018-12-11T21:12:38.314Z,12.40
2018-12-11T21:15:09.544Z,12.40
2018-12-11T21:17:37.731Z,13.00
2018-12-11T21:20:07.943Z,11.80
2018-12-11T21:22:37.102Z,12.80
2018-12-11T21:25:05.543Z,12.70
2018-12-11T21:27:34.110Z,11.57
2018-12-11T21:30:08.273Z,12.03
2018-12-11T21:32:36.536Z,11.83
2018-12-11T21:35:06.783Z,12.43
2018-12-11T21:37:34.983Z,12.73
2018-12-11T21:40:06.143Z,13.10
2018-12-11T21:42:34.337Z,12.53
2018-12-11T21:45:06.326Z,12.83
2018-12-11T21:47:35.598Z,12.37
2018-12-11T21:50:05.511Z,9.97
2018-12-11T21:52:33.710Z,13.17
2018-12-11T21:55:06.687Z,12.63
2018-12-11T21:57:34.888Z,12.13
2018-12-11T22:00:09.660Z,13.77
2018-12-11T22:02:38.042Z,12.33
2018-12-11T22:05:06.350Z,13.13
2018-12-11T22:07:34.562Z,12.50
2018-12-11T22:10:06.553Z,11.47
2018-12-11T22:12:35.235Z,12.67
2018-12-11T22:15:06.958Z,12.73
2018-12-11T22:17:35.143Z,12.57
2018-12-11T22:20:07.974Z,11.90
2018-12-11T22:22:36.735Z,15.20
2018-12-11T22:25:09.054Z,11.50
2018-12-11T22:27:44.859Z,14.10
2018-12-11T22:30:14.094Z,12.80
2018-12-11T22:32:54.622Z,11.40
2018-12-11T22:35:27.375Z,12.07
2018-12-11T22:37:55.555Z,12.80
2018-12-11T22:40:25.862Z,13.80
2018-12-11T22:42:54.049Z,13.67
2018-12-11T22:45:22.841Z,12.40
2018-12-11T22:47:51.082Z,12.80
2018-12-11T22:50:19.235Z,11.90
2018-12-11T22:52:48.073Z,12.80
2018-12-11T22:55:16.478Z,12.13
2018-12-11T22:57:45.070Z,14.30
2018-12-11T23:00:13.439Z,13.60
2018-12-11T23:02:41.835Z,14.67
2018-12-11T23:05:10.152Z,13.63
2018-12-11T23:07:38.335Z,13.70
2018-12-11T23:10:06.632Z,13.73
2018-12-11T23:12:36.403Z,12.70
2018-12-11T23:15:06.658Z,14.37
2018-12-11T23:17:34.851Z,12.70
2018-12-11T23:20:04.318Z,13.83
2018-12-11T23:22:33.418Z,12.93
2018-12-11T23:25:05.022Z,12.83
2018-12-11T23:27:33.201Z,12.70
2018-12-11T23:30:04.559Z,11.57
2018-12-11T23:32:33.764Z,12.50
2018-12-11T23:35:02.957Z,12.80
2018-12-11T23:37:31.153Z,13.40
2018-12-11T23:39:59.350Z,11.77
2018-12-11T23:42:27.516Z,11.63
2018-12-11T23:44:55.723Z,11.80
2018-12-11T23:47:23.870Z,11.17
2018-12-11T23:49:52.023Z,11.67
2018-12-11T23:52:20.786Z,10.60
2018-12-11T23:54:49.358Z,12.30
2018-12-11T23:57:17.605Z,11.40
2018-12-11T23:59:45.722Z,10.03
